Airfield :
LOGIN :

Register | Disclaimer

   EN    FR    IT 

 










Legend :    VFR   Marginal VFR   IFR   Intensive IFR   Very Intensive IFR
Visi :
Ceiling :
>= 8 km
>= 3000ft
5 to 8 km
1000 to 3000 ft
1500m to 5 km
500 to 1000 ft
800 to 1500m
200 to 500 ft
< 800m
< 200 ft
Symbols :   Thunderstorms  Fog  Heavy snow  Heavy precipitations  Wind > 20 kt
SIGMETs :     Misc.  Thunderstorms  Icing  Turbulence  Mountain Waves  Volcanic Ashes







- Airport Elevation : 90 ft
- IATA code : NTE
- Download approach charts


LFRS - Nantes

CURRENT METAR :
  • 200730Z AUTO 31005KT 280V340 9999 OVC009 14/12 Q1013 BECMG SCT030

EXPIRED METARs :
  • 200700Z AUTO VRB03KT 9999 SCT007 BKN062 BKN074 13/12 Q1013 TEMPO 3000 BR
  • 200630Z AUTO VRB01KT 8000 NSC 11/10 Q1012 TEMPO 3000 BR
  • 200600Z AUTO VRB03KT 7000 FEW012 10/09 Q1012 TEMPO 3000 BR
  • 200530Z AUTO 26003KT 6000 NSC 09/09 Q1012 TEMPO 3000 BR
  • 200500Z AUTO 03001KT 6000 NSC 09/09 Q1012 TEMPO 3000 BR BKN005

TAF TAF LFRS
Valid from the 20 at 06:00 until the 21 at 12:00 UTC


200500Z 2006/2112 32005KT 9999 SCT030
PROB30
TEMPO 2006/2008 3000 BR
TEMPO 2011/2022 -SHRA BKN040TCU SCT050CB
PROB40
TEMPO 2015/2020 3000 TSRA BKN030CB
TEMPO 2102/2108 3000 BR BKN003
PROB30
TEMPO 2103/2106 0500 FG VV///
ATIS : +33 2 40 05 12 74
No reported NOTAMs for that airfield.



MET'MAP, your aeronautical weather chart ! - Copyright ORBIFLY December 2007 - Disclaimer

ORBIFLY MET'MAP TEAM :

Programming & Development : Alexandra Zaïnal
Concept & Development : Baudouin d'Aumeries
Co-Development & Prog : Marc-Olivier Méhu
Technical & hardware support : Manuel Goepfert

Contact : metmap@orbifly.com




SOURCES & CREDITS :

   NOAA